Galeon Andalucia — EAIZ — position and weather

sailwx.info

Track history (hours):
 
Tides and Currents Weather Stations Pressure Air Temp Water Temp Dewpoint Dewpoint Depression Visibility Wind Speed Wind Dir Waves Ship Positions

Galeon Andalucia

Last reported at 2017-May-25 09:55 UTC. Time now 2017-May-28 08:28 UTC.
Position N 38°48' W 077°02'.

Length 47 m; draft 3.1 m.

Type: Ship. MMSI: 225356000.

Date/timePositionNaut miles runAvg speedWind from/ knotsBaromVisibWave heightAir tempDewpointWater temp
2017-May-25 09:55N 38°48' W 077°02'0 0.0
2017-May-25 09:29N 38°48' W 077°02'0 0.0
2017-May-25 09:00N 38°48' W 077°02'0 0.0
2017-May-25 08:29N 38°48' W 077°02'1 2.4
2017-May-25 08:00N 38°47' W 077°02'4 8.3
2017-May-25 07:29N 38°43' W 077°02'4 7.3
2017-May-25 07:00N 38°41' W 077°06'3 5.8
2017-May-25 06:30N 38°39' W 077°08'44 5.2
2017-May-24 22:01N 38°06' W 076°30'0 8.1
2017-May-24 21:58N 38°05' W 076°30'4 8.2
2017-May-24 21:27N 38°03' W 076°26'4 8.2
2017-May-24 21:00N 38°01' W 076°22'67 7.7
2017-May-24 12:20N 36°57' W 075°58'3 8.1
2017-May-24 12:00N 36°55' W 075°55'5 6.4
2017-May-24 11:16N 36°53' W 075°50'  
Track history (hours):
 
Tides and Currents Weather Stations Pressure Air Temp Water Temp Dewpoint Dewpoint Depression Visibility Wind Speed Wind Dir Waves Ship Positions

Galeon Andalucia

Last reported at 2017-May-25 09:55 UTC. Time now 2017-May-28 08:28 UTC.
Position N 38°48' W 077°02'.

Length 47 m; draft 3.1 m.

Type: Ship. MMSI: 225356000.

Date/timePositionNaut miles runAvg speedWind from/ knotsBaromVisibWave heightAir tempDewpointWater temp
2017-May-25 09:55N 38°48' W 077°02'0 0.0
2017-May-25 09:29N 38°48' W 077°02'0 0.0
2017-May-25 09:00N 38°48' W 077°02'0 0.0
2017-May-25 08:29N 38°48' W 077°02'1 2.4
2017-May-25 08:00N 38°47' W 077°02'4 8.3
2017-May-25 07:29N 38°43' W 077°02'4 7.3
2017-May-25 07:00N 38°41' W 077°06'3 5.8
2017-May-25 06:30N 38°39' W 077°08'44 5.2
2017-May-24 22:01N 38°06' W 076°30'0 8.1
2017-May-24 21:58N 38°05' W 076°30'4 8.2
2017-May-24 21:27N 38°03' W 076°26'4 8.2
2017-May-24 21:00N 38°01' W 076°22'67 7.7
2017-May-24 12:20N 36°57' W 075°58'3 8.1
2017-May-24 12:00N 36°55' W 075°55'5 6.4
2017-May-24 11:16N 36°53' W 075°50'  

Dump ship's entire track history